sensor_id;sensor_type;location;lat;lon;timestamp;P1;durP1;ratioP1;P2;durP2;ratioP2
7057;SDS011;3570;43.080;25.628;2023-06-14T00:01:10;12.63;;;9.30;;
7057;SDS011;3570;43.080;25.628;2023-06-14T00:03:57;13.73;;;9.60;;
7057;SDS011;3570;43.080;25.628;2023-06-14T00:06:41;14.20;;;9.27;;
7057;SDS011;3570;43.080;25.628;2023-06-14T00:09:25;11.20;;;8.47;;
7057;SDS011;3570;43.080;25.628;2023-06-14T00:12:09;9.83;;;8.40;;
7057;SDS011;3570;43.080;25.628;2023-06-14T00:14:53;11.30;;;7.67;;
7057;SDS011;3570;43.080;25.628;2023-06-14T00:17:37;9.60;;;7.40;;
7057;SDS011;3570;43.080;25.628;2023-06-14T00:20:22;11.97;;;7.67;;
7057;SDS011;3570;43.080;25.628;2023-06-14T00:23:06;11.27;;;8.83;;
7057;SDS011;3570;43.080;25.628;2023-06-14T00:25:51;15.50;;;8.70;;
7057;SDS011;3570;43.080;25.628;2023-06-14T00:28:35;14.70;;;9.33;;
7057;SDS011;3570;43.080;25.628;2023-06-14T00:31:19;12.73;;;10.27;;
7057;SDS011;3570;43.080;25.628;2023-06-14T00:34:03;15.87;;;9.47;;
7057;SDS011;3570;43.080;25.628;2023-06-14T00:36:47;11.10;;;9.83;;
7057;SDS011;3570;43.080;25.628;2023-06-14T00:39:31;13.30;;;9.80;;
7057;SDS011;3570;43.080;25.628;2023-06-14T00:42:25;18.37;;;10.03;;
7057;SDS011;3570;43.080;25.628;2023-06-14T00:45:10;12.30;;;9.40;;
7057;SDS011;3570;43.080;25.628;2023-06-14T00:47:54;13.70;;;10.67;;
7057;SDS011;3570;43.080;25.628;2023-06-14T00:50:39;13.50;;;10.33;;
7057;SDS011;3570;43.080;25.628;2023-06-14T00:53:24;15.37;;;10.37;;
7057;SDS011;3570;43.080;25.628;2023-06-14T00:56:09;12.30;;;9.20;;
7057;SDS011;3570;43.080;25.628;2023-06-14T00:58:53;17.97;;;10.77;;
7057;SDS011;3570;43.080;25.628;2023-06-14T01:01:39;13.53;;;9.03;;
7057;SDS011;3570;43.080;25.628;2023-06-14T01:04:23;12.90;;;10.23;;
7057;SDS011;3570;43.080;25.628;2023-06-14T01:10:35;11.80;;;9.40;;
7057;SDS011;3570;43.080;25.628;2023-06-14T01:13:38;14.60;;;8.90;;
7057;SDS011;3570;43.080;25.628;2023-06-14T01:16:24;13.50;;;10.10;;
7057;SDS011;3570;43.080;25.628;2023-06-14T01:19:09;11.53;;;9.30;;
7057;SDS011;3570;43.080;25.628;2023-06-14T01:21:57;12.47;;;9.17;;
7057;SDS011;3570;43.080;25.628;2023-06-14T01:24:44;12.10;;;8.87;;
7057;SDS011;3570;43.080;25.628;2023-06-14T01:27:29;12.37;;;8.97;;
7057;SDS011;3570;43.080;25.628;2023-06-14T01:30:16;13.77;;;9.93;;
7057;SDS011;3570;43.080;25.628;2023-06-14T01:33:01;14.30;;;10.17;;
7057;SDS011;3570;43.080;25.628;2023-06-14T01:35:50;13.77;;;9.40;;
7057;SDS011;3570;43.080;25.628;2023-06-14T01:38:35;14.70;;;9.33;;
7057;SDS011;3570;43.080;25.628;2023-06-14T01:41:20;18.70;;;8.77;;
7057;SDS011;3570;43.080;25.628;2023-06-14T01:44:06;12.40;;;8.33;;
7057;SDS011;3570;43.080;25.628;2023-06-14T01:46:51;10.50;;;8.37;;
7057;SDS011;3570;43.080;25.628;2023-06-14T01:49:35;12.63;;;9.37;;
7057;SDS011;3570;43.080;25.628;2023-06-14T01:52:19;15.10;;;10.03;;
7057;SDS011;3570;43.080;25.628;2023-06-14T01:55:06;13.27;;;9.83;;
7057;SDS011;3570;43.080;25.628;2023-06-14T01:57:52;13.63;;;9.13;;
7057;SDS011;3570;43.080;25.628;2023-06-14T02:00:37;12.03;;;9.77;;
7057;SDS011;3570;43.080;25.628;2023-06-14T02:03:21;12.63;;;10.10;;
7057;SDS011;3570;43.080;25.628;2023-06-14T02:06:07;11.70;;;9.27;;
7057;SDS011;3570;43.080;25.628;2023-06-14T02:08:50;14.50;;;9.33;;
7057;SDS011;3570;43.080;25.628;2023-06-14T02:11:34;14.67;;;9.83;;
7057;SDS011;3570;43.080;25.628;2023-06-14T02:14:18;12.33;;;9.70;;
7057;SDS011;3570;43.080;25.628;2023-06-14T02:17:02;16.50;;;10.80;;
7057;SDS011;3570;43.080;25.628;2023-06-14T02:19:46;14.53;;;9.63;;
7057;SDS011;3570;43.080;25.628;2023-06-14T02:22:30;11.27;;;9.43;;
7057;SDS011;3570;43.080;25.628;2023-06-14T02:25:14;10.93;;;8.77;;
7057;SDS011;3570;43.080;25.628;2023-06-14T02:27:58;11.27;;;9.03;;
7057;SDS011;3570;43.080;25.628;2023-06-14T02:30:42;17.63;;;11.77;;
7057;SDS011;3570;43.080;25.628;2023-06-14T02:33:26;17.63;;;10.27;;
7057;SDS011;3570;43.080;25.628;2023-06-14T02:36:11;13.77;;;9.90;;
7057;SDS011;3570;43.080;25.628;2023-06-14T02:38:55;10.97;;;9.73;;
7057;SDS011;3570;43.080;25.628;2023-06-14T02:41:41;14.53;;;10.60;;
7057;SDS011;3570;43.080;25.628;2023-06-14T02:44:25;17.00;;;9.70;;
7057;SDS011;3570;43.080;25.628;2023-06-14T02:47:11;12.03;;;9.97;;
7057;SDS011;3570;43.080;25.628;2023-06-14T02:49:55;13.80;;;10.33;;
7057;SDS011;3570;43.080;25.628;2023-06-14T02:52:39;13.60;;;10.07;;
7057;SDS011;3570;43.080;25.628;2023-06-14T02:55:25;12.70;;;9.80;;
7057;SDS011;3570;43.080;25.628;2023-06-14T02:58:10;12.70;;;9.57;;
7057;SDS011;3570;43.080;25.628;2023-06-14T03:00:53;11.57;;;9.70;;
7057;SDS011;3570;43.080;25.628;2023-06-14T03:03:38;14.17;;;10.10;;
7057;SDS011;3570;43.080;25.628;2023-06-14T03:06:22;15.20;;;9.77;;
7057;SDS011;3570;43.080;25.628;2023-06-14T03:09:08;17.17;;;9.60;;
7057;SDS011;3570;43.080;25.628;2023-06-14T03:11:52;14.83;;;9.37;;
7057;SDS011;3570;43.080;25.628;2023-06-14T03:14:36;14.83;;;9.07;;
7057;SDS011;3570;43.080;25.628;2023-06-14T03:17:22;18.63;;;9.70;;
7057;SDS011;3570;43.080;25.628;2023-06-14T03:20:06;12.10;;;9.63;;
7057;SDS011;3570;43.080;25.628;2023-06-14T03:22:51;15.77;;;10.20;;
7057;SDS011;3570;43.080;25.628;2023-06-14T03:25:36;14.90;;;8.30;;
7057;SDS011;3570;43.080;25.628;2023-06-14T03:28:22;13.27;;;9.47;;
7057;SDS011;3570;43.080;25.628;2023-06-14T03:31:05;14.90;;;8.80;;
7057;SDS011;3570;43.080;25.628;2023-06-14T03:33:50;12.80;;;9.13;;
7057;SDS011;3570;43.080;25.628;2023-06-14T03:36:34;14.10;;;8.97;;
7057;SDS011;3570;43.080;25.628;2023-06-14T03:39:18;15.27;;;8.90;;
7057;SDS011;3570;43.080;25.628;2023-06-14T03:42:03;15.90;;;9.73;;
7057;SDS011;3570;43.080;25.628;2023-06-14T03:44:48;14.97;;;9.77;;
7057;SDS011;3570;43.080;25.628;2023-06-14T03:47:34;12.93;;;10.37;;
7057;SDS011;3570;43.080;25.628;2023-06-14T03:50:19;14.07;;;10.07;;
7057;SDS011;3570;43.080;25.628;2023-06-14T03:53:04;13.93;;;9.27;;
7057;SDS011;3570;43.080;25.628;2023-06-14T03:55:49;13.60;;;10.60;;
7057;SDS011;3570;43.080;25.628;2023-06-14T03:58:37;17.63;;;10.00;;
7057;SDS011;3570;43.080;25.628;2023-06-14T04:01:21;11.23;;;9.43;;
7057;SDS011;3570;43.080;25.628;2023-06-14T04:04:12;14.03;;;10.00;;
7057;SDS011;3570;43.080;25.628;2023-06-14T04:06:57;13.77;;;10.73;;
7057;SDS011;3570;43.080;25.628;2023-06-14T04:09:42;13.73;;;10.70;;
7057;SDS011;3570;43.080;25.628;2023-06-14T04:12:26;17.70;;;9.97;;
7057;SDS011;3570;43.080;25.628;2023-06-14T04:15:10;15.10;;;11.93;;
7057;SDS011;3570;43.080;25.628;2023-06-14T04:17:54;14.43;;;10.57;;
7057;SDS011;3570;43.080;25.628;2023-06-14T04:20:41;17.37;;;11.47;;
7057;SDS011;3570;43.080;25.628;2023-06-14T04:23:25;19.27;;;11.30;;
7057;SDS011;3570;43.080;25.628;2023-06-14T04:26:11;19.77;;;11.27;;
7057;SDS011;3570;43.080;25.628;2023-06-14T04:28:55;14.73;;;11.30;;
7057;SDS011;3570;43.080;25.628;2023-06-14T04:31:40;15.53;;;11.60;;
7057;SDS011;3570;43.080;25.628;2023-06-14T04:34:30;20.67;;;12.00;;
7057;SDS011;3570;43.080;25.628;2023-06-14T04:37:16;20.50;;;11.90;;
7057;SDS011;3570;43.080;25.628;2023-06-14T04:40:01;17.30;;;12.23;;
7057;SDS011;3570;43.080;25.628;2023-06-14T04:42:48;19.10;;;11.70;;
7057;SDS011;3570;43.080;25.628;2023-06-14T04:45:34;19.47;;;11.80;;
7057;SDS011;3570;43.080;25.628;2023-06-14T04:48:21;14.50;;;12.03;;
7057;SDS011;3570;43.080;25.628;2023-06-14T04:51:07;16.93;;;12.37;;
7057;SDS011;3570;43.080;25.628;2023-06-14T04:53:51;14.97;;;11.53;;
7057;SDS011;3570;43.080;25.628;2023-06-14T04:56:41;16.13;;;12.17;;
7057;SDS011;3570;43.080;25.628;2023-06-14T04:59:30;21.57;;;13.43;;
7057;SDS011;3570;43.080;25.628;2023-06-14T05:02:16;24.83;;;14.80;;
7057;SDS011;3570;43.080;25.628;2023-06-14T05:05:00;24.70;;;18.50;;
7057;SDS011;3570;43.080;25.628;2023-06-14T05:07:45;23.97;;;16.33;;
7057;SDS011;3570;43.080;25.628;2023-06-14T05:10:30;20.97;;;15.00;;
7057;SDS011;3570;43.080;25.628;2023-06-14T05:13:14;23.63;;;13.27;;
7057;SDS011;3570;43.080;25.628;2023-06-14T05:15:59;20.03;;;13.40;;
7057;SDS011;3570;43.080;25.628;2023-06-14T05:18:43;21.03;;;13.33;;
7057;SDS011;3570;43.080;25.628;2023-06-14T05:21:27;16.93;;;12.07;;
7057;SDS011;3570;43.080;25.628;2023-06-14T05:24:11;22.17;;;13.20;;
7057;SDS011;3570;43.080;25.628;2023-06-14T05:26:55;26.13;;;14.40;;
7057;SDS011;3570;43.080;25.628;2023-06-14T05:29:40;15.40;;;11.23;;
7057;SDS011;3570;43.080;25.628;2023-06-14T05:32:24;21.70;;;13.07;;
7057;SDS011;3570;43.080;25.628;2023-06-14T05:35:10;19.70;;;12.80;;
7057;SDS011;3570;43.080;25.628;2023-06-14T05:37:54;18.03;;;12.97;;
7057;SDS011;3570;43.080;25.628;2023-06-14T05:40:39;17.33;;;11.97;;
7057;SDS011;3570;43.080;25.628;2023-06-14T05:43:23;18.17;;;12.73;;
7057;SDS011;3570;43.080;25.628;2023-06-14T05:46:08;16.00;;;11.67;;
7057;SDS011;3570;43.080;25.628;2023-06-14T05:48:55;14.43;;;10.60;;
7057;SDS011;3570;43.080;25.628;2023-06-14T05:51:39;28.03;;;17.03;;
7057;SDS011;3570;43.080;25.628;2023-06-14T05:54:23;21.70;;;15.37;;
7057;SDS011;3570;43.080;25.628;2023-06-14T05:57:07;24.67;;;15.23;;
7057;SDS011;3570;43.080;25.628;2023-06-14T05:59:52;20.23;;;14.30;;
7057;SDS011;3570;43.080;25.628;2023-06-14T06:02:36;15.77;;;12.10;;
7057;SDS011;3570;43.080;25.628;2023-06-14T06:05:20;16.73;;;12.50;;
7057;SDS011;3570;43.080;25.628;2023-06-14T06:08:04;17.93;;;12.90;;
7057;SDS011;3570;43.080;25.628;2023-06-14T06:10:48;16.37;;;11.47;;
7057;SDS011;3570;43.080;25.628;2023-06-14T06:13:33;24.83;;;12.40;;
7057;SDS011;3570;43.080;25.628;2023-06-14T06:16:18;19.13;;;12.20;;
7057;SDS011;3570;43.080;25.628;2023-06-14T06:19:03;15.80;;;11.40;;
7057;SDS011;3570;43.080;25.628;2023-06-14T06:21:47;17.00;;;11.63;;
7057;SDS011;3570;43.080;25.628;2023-06-14T06:24:32;14.03;;;9.73;;
7057;SDS011;3570;43.080;25.628;2023-06-14T06:27:16;18.93;;;10.50;;
7057;SDS011;3570;43.080;25.628;2023-06-14T06:30:02;14.20;;;10.00;;
7057;SDS011;3570;43.080;25.628;2023-06-14T06:32:46;14.77;;;10.10;;
7057;SDS011;3570;43.080;25.628;2023-06-14T06:35:31;13.60;;;9.43;;
7057;SDS011;3570;43.080;25.628;2023-06-14T06:38:16;14.20;;;8.77;;
7057;SDS011;3570;43.080;25.628;2023-06-14T06:41:02;11.17;;;9.37;;
7057;SDS011;3570;43.080;25.628;2023-06-14T06:43:46;15.30;;;9.73;;
7057;SDS011;3570;43.080;25.628;2023-06-14T06:46:30;10.03;;;8.23;;
7057;SDS011;3570;43.080;25.628;2023-06-14T06:49:14;12.47;;;10.03;;
7057;SDS011;3570;43.080;25.628;2023-06-14T06:52:02;14.37;;;10.40;;
7057;SDS011;3570;43.080;25.628;2023-06-14T06:54:47;14.80;;;9.40;;
7057;SDS011;3570;43.080;25.628;2023-06-14T06:57:32;14.23;;;9.50;;
7057;SDS011;3570;43.080;25.628;2023-06-14T07:00:16;13.53;;;10.03;;
7057;SDS011;3570;43.080;25.628;2023-06-14T07:03:01;18.80;;;10.87;;
7057;SDS011;3570;43.080;25.628;2023-06-14T07:05:47;16.43;;;10.80;;
7057;SDS011;3570;43.080;25.628;2023-06-14T07:08:31;14.17;;;11.80;;
7057;SDS011;3570;43.080;25.628;2023-06-14T07:11:15;14.77;;;11.03;;
7057;SDS011;3570;43.080;25.628;2023-06-14T07:13:59;15.63;;;10.77;;
7057;SDS011;3570;43.080;25.628;2023-06-14T07:16:43;13.50;;;11.33;;
7057;SDS011;3570;43.080;25.628;2023-06-14T07:19:28;13.90;;;10.20;;
7057;SDS011;3570;43.080;25.628;2023-06-14T07:22:11;13.97;;;10.90;;
7057;SDS011;3570;43.080;25.628;2023-06-14T07:24:56;11.97;;;10.33;;
7057;SDS011;3570;43.080;25.628;2023-06-14T07:27:43;15.60;;;11.80;;
7057;SDS011;3570;43.080;25.628;2023-06-14T07:30:28;11.23;;;9.87;;
7057;SDS011;3570;43.080;25.628;2023-06-14T07:33:13;14.03;;;10.50;;
7057;SDS011;3570;43.080;25.628;2023-06-14T07:35:57;22.53;;;14.00;;
7057;SDS011;3570;43.080;25.628;2023-06-14T07:38:41;20.90;;;13.97;;
7057;SDS011;3570;43.080;25.628;2023-06-14T07:41:27;21.77;;;14.37;;
7057;SDS011;3570;43.080;25.628;2023-06-14T07:44:11;15.33;;;13.73;;
7057;SDS011;3570;43.080;25.628;2023-06-14T07:46:55;25.00;;;15.17;;
7057;SDS011;3570;43.080;25.628;2023-06-14T07:49:41;16.83;;;12.73;;
7057;SDS011;3570;43.080;25.628;2023-06-14T07:52:26;22.70;;;13.37;;
7057;SDS011;3570;43.080;25.628;2023-06-14T07:55:10;17.83;;;13.47;;
7057;SDS011;3570;43.080;25.628;2023-06-14T07:57:54;16.13;;;12.67;;
7057;SDS011;3570;43.080;25.628;2023-06-14T08:00:38;16.17;;;11.40;;
7057;SDS011;3570;43.080;25.628;2023-06-14T08:03:23;16.63;;;11.43;;
7057;SDS011;3570;43.080;25.628;2023-06-14T08:06:08;14.47;;;11.33;;
7057;SDS011;3570;43.080;25.628;2023-06-14T08:08:52;18.10;;;11.70;;
7057;SDS011;3570;43.080;25.628;2023-06-14T08:11:36;17.87;;;11.07;;
7057;SDS011;3570;43.080;25.628;2023-06-14T08:14:21;14.80;;;10.70;;
7057;SDS011;3570;43.080;25.628;2023-06-14T08:17:05;13.07;;;10.48;;
7057;SDS011;3570;43.080;25.628;2023-06-14T08:19:49;20.80;;;10.80;;
7057;SDS011;3570;43.080;25.628;2023-06-14T08:22:34;12.13;;;9.47;;
7057;SDS011;3570;43.080;25.628;2023-06-14T08:25:18;11.00;;;9.90;;
7057;SDS011;3570;43.080;25.628;2023-06-14T08:28:02;13.30;;;10.57;;
7057;SDS011;3570;43.080;25.628;2023-06-14T08:30:47;12.33;;;10.07;;
7057;SDS011;3570;43.080;25.628;2023-06-14T08:33:31;12.17;;;9.40;;
7057;SDS011;3570;43.080;25.628;2023-06-14T08:36:18;13.97;;;9.57;;
7057;SDS011;3570;43.080;25.628;2023-06-14T08:39:03;16.88;;;9.85;;
7057;SDS011;3570;43.080;25.628;2023-06-14T08:41:47;18.65;;;10.20;;
7057;SDS011;3570;43.080;25.628;2023-06-14T08:44:32;18.77;;;9.38;;
7057;SDS011;3570;43.080;25.628;2023-06-14T08:47:17;12.90;;;8.77;;
7057;SDS011;3570;43.080;25.628;2023-06-14T08:50:02;10.10;;;8.23;;
7057;SDS011;3570;43.080;25.628;2023-06-14T08:52:48;14.63;;;8.05;;
7057;SDS011;3570;43.080;25.628;2023-06-14T08:55:37;13.02;;;8.45;;
7057;SDS011;3570;43.080;25.628;2023-06-14T08:58:23;9.60;;;7.60;;
7057;SDS011;3570;43.080;25.628;2023-06-14T09:01:08;10.73;;;7.28;;
7057;SDS011;3570;43.080;25.628;2023-06-14T09:03:55;13.30;;;7.88;;
7057;SDS011;3570;43.080;25.628;2023-06-14T09:06:41;88.40;;;10.57;;
7057;SDS011;3570;43.080;25.628;2023-06-14T09:09:25;8.57;;;7.57;;
7057;SDS011;3570;43.080;25.628;2023-06-14T09:12:12;10.13;;;8.15;;
7057;SDS011;3570;43.080;25.628;2023-06-14T09:14:57;12.80;;;8.52;;
7057;SDS011;3570;43.080;25.628;2023-06-14T09:17:41;10.52;;;7.82;;
7057;SDS011;3570;43.080;25.628;2023-06-14T09:20:26;10.10;;;7.38;;
7057;SDS011;3570;43.080;25.628;2023-06-14T09:23:10;10.77;;;7.82;;
7057;SDS011;3570;43.080;25.628;2023-06-14T09:25:56;12.15;;;9.52;;
7057;SDS011;3570;43.080;25.628;2023-06-14T09:28:47;9.23;;;7.30;;
7057;SDS011;3570;43.080;25.628;2023-06-14T09:31:32;8.65;;;6.60;;
7057;SDS011;3570;43.080;25.628;2023-06-14T09:34:18;7.50;;;6.70;;
7057;SDS011;3570;43.080;25.628;2023-06-14T09:37:07;6.80;;;6.10;;
7057;SDS011;3570;43.080;25.628;2023-06-14T09:39:51;7.85;;;6.22;;
7057;SDS011;3570;43.080;25.628;2023-06-14T09:42:35;5.85;;;5.25;;
7057;SDS011;3570;43.080;25.628;2023-06-14T09:45:20;5.97;;;5.38;;
7057;SDS011;3570;43.080;25.628;2023-06-14T09:48:06;8.77;;;5.97;;
7057;SDS011;3570;43.080;25.628;2023-06-14T09:50:52;6.53;;;5.57;;
7057;SDS011;3570;43.080;25.628;2023-06-14T09:53:39;6.65;;;5.45;;
7057;SDS011;3570;43.080;25.628;2023-06-14T09:56:28;7.55;;;6.07;;
7057;SDS011;3570;43.080;25.628;2023-06-14T09:59:16;7.95;;;5.75;;
7057;SDS011;3570;43.080;25.628;2023-06-14T10:02:06;11.13;;;7.00;;
7057;SDS011;3570;43.080;25.628;2023-06-14T10:05:11;8.57;;;6.72;;
7057;SDS011;3570;43.080;25.628;2023-06-14T10:08:00;7.47;;;6.15;;
7057;SDS011;3570;43.080;25.628;2023-06-14T10:10:52;9.10;;;5.90;;
7057;SDS011;3570;43.080;25.628;2023-06-14T10:13:39;10.75;;;5.85;;
7057;SDS011;3570;43.080;25.628;2023-06-14T10:22:13;8.73;;;5.28;;
7057;SDS011;3570;43.080;25.628;2023-06-14T10:25:02;9.10;;;5.80;;
7057;SDS011;3570;43.080;25.628;2023-06-14T10:27:51;6.65;;;5.30;;
7057;SDS011;3570;43.080;25.628;2023-06-14T10:30:35;8.93;;;6.45;;
7057;SDS011;3570;43.080;25.628;2023-06-14T10:33:19;7.57;;;5.57;;
7057;SDS011;3570;43.080;25.628;2023-06-14T10:36:09;11.13;;;5.40;;
7057;SDS011;3570;43.080;25.628;2023-06-14T10:39:15;10.60;;;4.90;;
7057;SDS011;3570;43.080;25.628;2023-06-14T10:42:01;7.95;;;4.88;;
7057;SDS011;3570;43.080;25.628;2023-06-14T10:44:51;5.13;;;4.63;;
7057;SDS011;3570;43.080;25.628;2023-06-14T10:47:36;6.22;;;4.97;;
7057;SDS011;3570;43.080;25.628;2023-06-14T10:50:27;7.68;;;5.20;;
7057;SDS011;3570;43.080;25.628;2023-06-14T10:53:23;6.65;;;4.82;;
7057;SDS011;3570;43.080;25.628;2023-06-14T10:56:07;6.18;;;4.63;;
7057;SDS011;3570;43.080;25.628;2023-06-14T10:58:52;19.05;;;4.45;;
7057;SDS011;3570;43.080;25.628;2023-06-14T11:01:39;6.18;;;4.47;;
7057;SDS011;3570;43.080;25.628;2023-06-14T11:04:47;4.82;;;4.32;;
7057;SDS011;3570;43.080;25.628;2023-06-14T11:10:52;4.78;;;3.83;;
7057;SDS011;3570;43.080;25.628;2023-06-14T11:13:43;7.32;;;4.43;;
7057;SDS011;3570;43.080;25.628;2023-06-14T11:16:29;8.82;;;4.97;;
7057;SDS011;3570;43.080;25.628;2023-06-14T11:19:17;5.13;;;4.63;;
7057;SDS011;3570;43.080;25.628;2023-06-14T11:22:01;7.00;;;3.80;;
7057;SDS011;3570;43.080;25.628;2023-06-14T11:24:46;5.28;;;4.75;;
7057;SDS011;3570;43.080;25.628;2023-06-14T11:27:32;4.32;;;3.92;;
7057;SDS011;3570;43.080;25.628;2023-06-14T11:30:16;6.43;;;4.65;;
7057;SDS011;3570;43.080;25.628;2023-06-14T11:33:01;4.82;;;3.92;;
7057;SDS011;3570;43.080;25.628;2023-06-14T11:35:45;7.95;;;4.80;;
7057;SDS011;3570;43.080;25.628;2023-06-14T11:38:30;11.38;;;9.38;;
7057;SDS011;3570;43.080;25.628;2023-06-14T11:41:14;5.60;;;4.80;;
7057;SDS011;3570;43.080;25.628;2023-06-14T11:43:59;7.65;;;4.55;;
7057;SDS011;3570;43.080;25.628;2023-06-14T11:46:45;5.13;;;4.50;;
7057;SDS011;3570;43.080;25.628;2023-06-14T11:49:29;6.10;;;4.60;;
7057;SDS011;3570;43.080;25.628;2023-06-14T11:52:13;5.07;;;4.57;;
7057;SDS011;3570;43.080;25.628;2023-06-14T11:54:58;5.28;;;4.38;;
7057;SDS011;3570;43.080;25.628;2023-06-14T11:57:42;8.60;;;4.55;;
7057;SDS011;3570;43.080;25.628;2023-06-14T12:00:27;7.63;;;4.82;;
7057;SDS011;3570;43.080;25.628;2023-06-14T12:03:13;5.72;;;4.50;;
7057;SDS011;3570;43.080;25.628;2023-06-14T12:06:07;5.28;;;4.13;;
7057;SDS011;3570;43.080;25.628;2023-06-14T12:08:55;4.97;;;4.13;;
7057;SDS011;3570;43.080;25.628;2023-06-14T12:11:40;4.82;;;3.75;;
7057;SDS011;3570;43.080;25.628;2023-06-14T12:14:28;4.05;;;3.65;;
7057;SDS011;3570;43.080;25.628;2023-06-14T12:17:13;4.22;;;3.67;;
7057;SDS011;3570;43.080;25.628;2023-06-14T12:20:11;5.10;;;4.07;;
7057;SDS011;3570;43.080;25.628;2023-06-14T12:23:00;6.20;;;4.15;;
7057;SDS011;3570;43.080;25.628;2023-06-14T12:25:47;7.90;;;6.10;;
7057;SDS011;3570;43.080;25.628;2023-06-14T12:28:32;4.70;;;4.07;;
7057;SDS011;3570;43.080;25.628;2023-06-14T12:31:16;4.85;;;3.90;;
7057;SDS011;3570;43.080;25.628;2023-06-14T12:34:02;7.63;;;3.80;;
7057;SDS011;3570;43.080;25.628;2023-06-14T12:36:46;7.68;;;3.70;;
7057;SDS011;3570;43.080;25.628;2023-06-14T12:39:30;4.63;;;4.22;;
7057;SDS011;3570;43.080;25.628;2023-06-14T12:42:15;6.28;;;4.63;;
7057;SDS011;3570;43.080;25.628;2023-06-14T12:44:59;4.63;;;3.80;;
7057;SDS011;3570;43.080;25.628;2023-06-14T12:47:43;4.55;;;3.25;;
7057;SDS011;3570;43.080;25.628;2023-06-14T12:50:28;7.40;;;4.43;;
7057;SDS011;3570;43.080;25.628;2023-06-14T12:53:12;6.45;;;4.05;;
7057;SDS011;3570;43.080;25.628;2023-06-14T12:55:56;3.63;;;3.33;;
7057;SDS011;3570;43.080;25.628;2023-06-14T12:58:40;4.32;;;3.88;;
7057;SDS011;3570;43.080;25.628;2023-06-14T13:01:24;6.25;;;4.00;;
7057;SDS011;3570;43.080;25.628;2023-06-14T13:04:08;8.98;;;3.53;;
7057;SDS011;3570;43.080;25.628;2023-06-14T13:06:53;4.20;;;3.80;;
7057;SDS011;3570;43.080;25.628;2023-06-14T13:09:38;7.50;;;3.70;;
7057;SDS011;3570;43.080;25.628;2023-06-14T13:12:22;6.85;;;4.22;;
7057;SDS011;3570;43.080;25.628;2023-06-14T13:15:07;5.35;;;3.58;;
7057;SDS011;3570;43.080;25.628;2023-06-14T13:17:51;4.05;;;3.63;;
7057;SDS011;3570;43.080;25.628;2023-06-14T13:20:36;4.05;;;3.60;;
7057;SDS011;3570;43.080;25.628;2023-06-14T13:23:20;4.47;;;4.05;;
7057;SDS011;3570;43.080;25.628;2023-06-14T13:26:05;4.10;;;3.58;;
7057;SDS011;3570;43.080;25.628;2023-06-14T13:28:49;6.35;;;3.65;;
7057;SDS011;3570;43.080;25.628;2023-06-14T13:31:34;6.35;;;4.07;;
7057;SDS011;3570;43.080;25.628;2023-06-14T13:34:18;8.05;;;4.47;;
7057;SDS011;3570;43.080;25.628;2023-06-14T13:37:03;8.13;;;4.35;;
7057;SDS011;3570;43.080;25.628;2023-06-14T13:39:48;7.32;;;4.22;;
7057;SDS011;3570;43.080;25.628;2023-06-14T13:42:32;5.43;;;4.18;;
7057;SDS011;3570;43.080;25.628;2023-06-14T13:45:16;6.78;;;4.50;;
7057;SDS011;3570;43.080;25.628;2023-06-14T13:48:00;5.03;;;4.55;;
7057;SDS011;3570;43.080;25.628;2023-06-14T13:50:44;4.65;;;4.18;;
7057;SDS011;3570;43.080;25.628;2023-06-14T13:53:29;4.82;;;4.32;;
7057;SDS011;3570;43.080;25.628;2023-06-14T13:56:14;6.20;;;3.75;;
7057;SDS011;3570;43.080;25.628;2023-06-14T13:58:59;9.40;;;4.40;;
7057;SDS011;3570;43.080;25.628;2023-06-14T14:01:44;4.45;;;3.60;;
7057;SDS011;3570;43.080;25.628;2023-06-14T14:04:28;6.00;;;3.97;;
7057;SDS011;3570;43.080;25.628;2023-06-14T14:07:12;3.90;;;3.60;;
7057;SDS011;3570;43.080;25.628;2023-06-14T14:09:56;5.47;;;3.75;;
7057;SDS011;3570;43.080;25.628;2023-06-14T14:12:41;10.02;;;3.90;;
7057;SDS011;3570;43.080;25.628;2023-06-14T14:15:25;6.13;;;3.70;;
7057;SDS011;3570;43.080;25.628;2023-06-14T14:18:09;5.10;;;4.30;;
7057;SDS011;3570;43.080;25.628;2023-06-14T14:20:53;10.07;;;4.00;;
7057;SDS011;3570;43.080;25.628;2023-06-14T14:23:38;7.30;;;3.92;;
7057;SDS011;3570;43.080;25.628;2023-06-14T14:26:22;7.35;;;4.07;;
7057;SDS011;3570;43.080;25.628;2023-06-14T14:29:07;6.10;;;3.78;;
7057;SDS011;3570;43.080;25.628;2023-06-14T14:31:52;6.75;;;3.50;;
7057;SDS011;3570;43.080;25.628;2023-06-14T14:34:36;3.85;;;3.50;;
7057;SDS011;3570;43.080;25.628;2023-06-14T14:37:20;5.22;;;4.03;;
7057;SDS011;3570;43.080;25.628;2023-06-14T14:40:04;4.63;;;3.80;;
7057;SDS011;3570;43.080;25.628;2023-06-14T14:42:52;5.28;;;3.70;;
7057;SDS011;3570;43.080;25.628;2023-06-14T14:45:36;8.60;;;4.13;;
7057;SDS011;3570;43.080;25.628;2023-06-14T14:48:21;3.60;;;3.30;;
7057;SDS011;3570;43.080;25.628;2023-06-14T14:51:05;4.40;;;4.00;;
7057;SDS011;3570;43.080;25.628;2023-06-14T14:53:49;4.88;;;3.20;;
7057;SDS011;3570;43.080;25.628;2023-06-14T14:56:32;4.05;;;3.63;;
7057;SDS011;3570;43.080;25.628;2023-06-14T14:59:18;4.57;;;3.45;;
7057;SDS011;3570;43.080;25.628;2023-06-14T15:02:05;4.88;;;3.63;;
7057;SDS011;3570;43.080;25.628;2023-06-14T15:04:49;6.97;;;3.60;;
7057;SDS011;3570;43.080;25.628;2023-06-14T15:07:33;4.53;;;3.75;;
7057;SDS011;3570;43.080;25.628;2023-06-14T15:10:17;4.25;;;3.65;;
7057;SDS011;3570;43.080;25.628;2023-06-14T15:13:01;4.93;;;3.80;;
7057;SDS011;3570;43.080;25.628;2023-06-14T15:15:45;4.97;;;3.60;;
7057;SDS011;3570;43.080;25.628;2023-06-14T15:18:32;5.72;;;4.25;;
7057;SDS011;3570;43.080;25.628;2023-06-14T15:21:23;3.28;;;3.00;;
7057;SDS011;3570;43.080;25.628;2023-06-14T15:24:08;5.18;;;3.42;;
7057;SDS011;3570;43.080;25.628;2023-06-14T15:26:52;3.95;;;3.58;;
7057;SDS011;3570;43.080;25.628;2023-06-14T15:29:37;5.22;;;3.40;;
7057;SDS011;3570;43.080;25.628;2023-06-14T15:32:22;3.95;;;3.63;;
7057;SDS011;3570;43.080;25.628;2023-06-14T15:35:06;7.57;;;3.75;;
7057;SDS011;3570;43.080;25.628;2023-06-14T15:37:50;4.15;;;3.75;;
7057;SDS011;3570;43.080;25.628;2023-06-14T15:40:35;4.30;;;3.53;;
7057;SDS011;3570;43.080;25.628;2023-06-14T15:43:18;4.85;;;4.25;;
7057;SDS011;3570;43.080;25.628;2023-06-14T15:46:03;7.72;;;4.05;;
7057;SDS011;3570;43.080;25.628;2023-06-14T15:48:47;7.32;;;4.10;;
7057;SDS011;3570;43.080;25.628;2023-06-14T15:51:30;5.93;;;4.30;;
7057;SDS011;3570;43.080;25.628;2023-06-14T15:54:14;4.28;;;3.53;;
7057;SDS011;3570;43.080;25.628;2023-06-14T15:56:58;5.05;;;3.92;;
7057;SDS011;3570;43.080;25.628;2023-06-14T15:59:42;4.80;;;3.60;;
7057;SDS011;3570;43.080;25.628;2023-06-14T16:02:26;7.28;;;4.30;;
7057;SDS011;3570;43.080;25.628;2023-06-14T16:05:11;4.72;;;4.15;;
7057;SDS011;3570;43.080;25.628;2023-06-14T16:07:55;5.47;;;4.20;;
7057;SDS011;3570;43.080;25.628;2023-06-14T16:10:39;4.43;;;3.55;;
7057;SDS011;3570;43.080;25.628;2023-06-14T16:13:24;4.43;;;3.38;;
7057;SDS011;3570;43.080;25.628;2023-06-14T16:16:09;5.10;;;3.67;;
7057;SDS011;3570;43.080;25.628;2023-06-14T16:18:53;3.90;;;3.50;;
7057;SDS011;3570;43.080;25.628;2023-06-14T16:21:37;3.70;;;3.40;;
7057;SDS011;3570;43.080;25.628;2023-06-14T16:24:21;4.60;;;4.13;;
7057;SDS011;3570;43.080;25.628;2023-06-14T16:27:05;7.15;;;3.92;;
7057;SDS011;3570;43.080;25.628;2023-06-14T16:29:52;4.10;;;3.63;;
7057;SDS011;3570;43.080;25.628;2023-06-14T16:32:35;4.70;;;3.72;;
7057;SDS011;3570;43.080;25.628;2023-06-14T16:35:20;5.22;;;3.90;;
7057;SDS011;3570;43.080;25.628;2023-06-14T16:38:03;5.20;;;4.10;;
7057;SDS011;3570;43.080;25.628;2023-06-14T16:40:47;6.65;;;4.13;;
7057;SDS011;3570;43.080;25.628;2023-06-14T16:43:32;4.75;;;4.25;;
7057;SDS011;3570;43.080;25.628;2023-06-14T16:46:26;5.90;;;4.00;;
7057;SDS011;3570;43.080;25.628;2023-06-14T16:49:18;5.72;;;3.92;;
7057;SDS011;3570;43.080;25.628;2023-06-14T16:52:02;5.57;;;4.00;;